Time;durP1;ratioP1;P1;durP2;ratioP2;P2;SDS_P1;SDS_P2;PMS_P1;PMS_P2;Temp;Humidity;BMP_temperature;BMP_pressure;BME280_temperature;BME280_humidity;BME280_pressure;Samples;Min_cycle;Max_cycle;Signal;HPM_P1;HPM_P2
2022/03/03 00:00:19;;;;;;;54.15;30.27;;;-1.40;99.90;;;;;;2067262;28;20406;-72
2022/03/03 00:01:20;;;;;;;49.63;29.55;;;-1.40;99.90;;;;;;2072287;28;20030;-70
2022/03/03 00:02:20;;;;;;;53.47;29.63;;;-1.40;99.90;;;;;;2072041;28;20033;-70
2022/03/03 00:03:21;;;;;;;55.08;31.38;;;-1.40;99.90;;;;;;2064630;28;20038;-70
2022/03/03 00:04:22;;;;;;;55.45;30.83;;;-1.40;99.90;;;;;;2064175;28;20041;-69
2022/03/03 00:05:22;;;;;;;51.95;30.27;;;-1.40;99.90;;;;;;2063911;28;20125;-73
2022/03/03 00:06:23;;;;;;;53.70;30.27;;;-1.40;99.90;;;;;;2063799;28;20034;-71
2022/03/03 00:07:24;;;;;;;50.15;29.83;;;-1.40;99.90;;;;;;2064485;28;20117;-74
2022/03/03 00:08:24;;;;;;;54.85;30.30;;;-1.40;99.90;;;;;;2063391;28;20076;-73
2022/03/03 00:09:25;;;;;;;50.72;29.45;;;-1.40;99.90;;;;;;2063918;28;20513;-72
2022/03/03 00:10:25;;;;;;;54.45;29.88;;;-1.40;99.90;;;;;;2063725;28;20026;-70
2022/03/03 00:11:26;;;;;;;51.97;29.73;;;-1.50;99.90;;;;;;2063951;28;20030;-71
2022/03/03 00:12:27;;;;;;;52.22;29.80;;;-1.40;99.90;;;;;;2063934;28;20030;-72
2022/03/03 00:13:28;;;;;;;52.22;29.75;;;-1.50;99.90;;;;;;2064051;28;20416;-71
2022/03/03 00:14:28;;;;;;;52.55;30.00;;;-1.50;99.90;;;;;;2063948;28;20105;-72
2022/03/03 00:15:34;;;;;;;52.25;29.15;;;-1.50;99.90;;;;;;2064494;28;20489;-73
2022/03/03 00:16:35;;;;;;;53.13;30.27;;;-1.50;99.90;;;;;;2063884;28;20023;-73
2022/03/03 00:17:35;;;;;;;54.92;30.40;;;-1.50;99.90;;;;;;2055460;28;20407;-73
2022/03/03 00:18:36;;;;;;;54.50;30.27;;;-1.50;99.90;;;;;;2055897;28;20038;-74
2022/03/03 00:19:37;;;;;;;55.28;30.17;;;-1.50;99.90;;;;;;2064084;28;20026;-73
2022/03/03 00:20:38;;;;;;;55.00;30.90;;;-1.50;99.90;;;;;;2063903;28;20548;-72
2022/03/03 00:21:38;;;;;;;55.03;30.65;;;-1.50;99.90;;;;;;2055706;28;20089;-72
2022/03/03 00:22:39;;;;;;;53.35;30.42;;;-1.50;99.90;;;;;;2063671;28;20788;-72
2022/03/03 00:23:39;;;;;;;55.92;30.95;;;-1.50;99.90;;;;;;2064446;28;20034;-72
2022/03/03 00:24:40;;;;;;;55.30;31.08;;;-1.50;99.90;;;;;;2064163;28;20134;-72
2022/03/03 00:25:41;;;;;;;56.63;30.08;;;-1.50;99.90;;;;;;2064398;28;20045;-72
2022/03/03 00:26:41;;;;;;;57.20;30.65;;;-1.50;99.90;;;;;;2064547;28;20105;-72
2022/03/03 00:27:42;;;;;;;54.08;30.05;;;-1.50;99.90;;;;;;2063998;28;20389;-73
2022/03/03 00:28:43;;;;;;;58.40;30.13;;;-1.50;99.90;;;;;;2064182;28;20034;-73
2022/03/03 00:29:43;;;;;;;56.45;30.52;;;-1.50;99.90;;;;;;2064133;28;20041;-71
2022/03/03 00:30:44;;;;;;;57.50;31.27;;;-1.60;99.90;;;;;;2064398;28;20398;-73
2022/03/03 00:31:45;;;;;;;54.55;30.58;;;-1.60;99.90;;;;;;2064445;28;20039;-73
2022/03/03 00:32:45;;;;;;;59.97;31.52;;;-1.60;99.90;;;;;;2064520;28;20100;-72
2022/03/03 00:33:46;;;;;;;57.58;31.05;;;-1.50;99.90;;;;;;2064376;28;20034;-72
2022/03/03 00:34:46;;;;;;;60.58;31.70;;;-1.60;99.90;;;;;;2064000;28;20035;-72
2022/03/03 00:35:47;;;;;;;63.60;31.63;;;-1.50;99.90;;;;;;2064572;28;20034;-73
2022/03/03 00:36:47;;;;;;;66.25;32.65;;;-1.60;99.90;;;;;;2064529;28;20030;-71
2022/03/03 00:37:48;;;;;;;58.08;30.55;;;-1.60;99.90;;;;;;2063840;28;20470;-71
2022/03/03 00:38:49;;;;;;;62.42;32.28;;;-1.60;99.90;;;;;;2064131;28;20037;-70
2022/03/03 00:39:49;;;;;;;61.22;31.83;;;-1.60;99.90;;;;;;2064461;28;20371;-71
2022/03/03 00:40:50;;;;;;;60.25;31.65;;;-1.60;99.90;;;;;;2063821;28;20034;-72
2022/03/03 00:41:51;;;;;;;63.50;32.45;;;-1.60;99.90;;;;;;2063770;28;20081;-71
2022/03/03 00:42:51;;;;;;;64.63;33.35;;;-1.70;99.90;;;;;;2063829;28;20662;-72
2022/03/03 00:43:52;;;;;;;65.30;33.55;;;-1.70;99.90;;;;;;2063819;28;20027;-73
2022/03/03 00:44:52;;;;;;;65.80;32.50;;;-1.70;99.90;;;;;;2064104;28;20430;-70
2022/03/03 00:45:53;;;;;;;62.13;32.22;;;-1.70;99.90;;;;;;2064556;28;20375;-70
2022/03/03 00:46:53;;;;;;;61.63;31.50;;;-1.70;99.90;;;;;;2063854;28;20097;-70
2022/03/03 00:47:54;;;;;;;61.40;32.13;;;-1.70;99.90;;;;;;2055362;28;20062;-71
2022/03/03 00:48:55;;;;;;;58.78;32.50;;;-1.70;99.90;;;;;;2064046;28;20054;-72
2022/03/03 00:49:56;;;;;;;56.03;31.88;;;-1.70;99.90;;;;;;2073648;28;20041;-69
2022/03/03 00:50:57;;;;;;;57.75;31.35;;;-1.70;99.90;;;;;;2068287;28;20038;-71
2022/03/03 00:51:58;;;;;;;59.55;31.88;;;-1.70;99.90;;;;;;2068613;28;20367;-71
2022/03/03 00:52:59;;;;;;;55.38;31.58;;;-1.70;99.90;;;;;;2053143;28;20058;-71
2022/03/03 00:54:01;;;;;;;56.33;31.10;;;-1.80;99.90;;;;;;2060912;28;20026;-72
2022/03/03 00:55:03;;;;;;;56.00;30.85;;;-1.70;99.90;;;;;;2071787;28;20109;-71
2022/03/03 00:56:04;;;;;;;53.33;29.45;;;-1.70;99.90;;;;;;2065034;28;20049;-70
2022/03/03 00:57:05;;;;;;;57.10;31.08;;;-1.80;99.90;;;;;;2064566;28;20743;-71
2022/03/03 00:58:06;;;;;;;57.08;31.45;;;-1.80;99.90;;;;;;2064202;28;20118;-71
2022/03/03 00:59:07;;;;;;;60.88;32.10;;;-1.80;99.90;;;;;;2064555;28;20031;-70
2022/03/03 01:00:09;;;;;;;57.92;32.92;;;-1.80;99.90;;;;;;2064496;28;20053;-71
2022/03/03 01:01:10;;;;;;;59.58;32.78;;;-1.80;99.90;;;;;;2064303;28;20537;-70
2022/03/03 01:02:11;;;;;;;55.47;31.73;;;-1.80;99.90;;;;;;2056617;28;20037;-72
2022/03/03 01:03:14;;;;;;;62.13;32.35;;;-1.80;99.90;;;;;;2056784;28;20039;-71
2022/03/03 01:04:15;;;;;;;59.45;32.60;;;-1.80;99.90;;;;;;2056692;28;20065;-72
2022/03/03 01:05:16;;;;;;;59.53;32.53;;;-1.80;99.90;;;;;;2064561;28;20034;-71
2022/03/03 01:06:17;;;;;;;61.03;32.60;;;-1.80;99.90;;;;;;2066370;28;20046;-71
2022/03/03 01:07:18;;;;;;;65.70;33.63;;;-1.80;99.90;;;;;;2065502;28;20452;-70
2022/03/03 01:08:18;;;;;;;64.15;33.17;;;-1.80;99.90;;;;;;2064219;28;20038;-71
2022/03/03 01:09:19;;;;;;;67.88;34.40;;;-1.80;99.90;;;;;;2064222;28;20076;-73
2022/03/03 01:10:20;;;;;;;69.78;35.40;;;-1.90;99.90;;;;;;2071945;28;20029;-73
2022/03/03 01:11:20;;;;;;;69.20;34.65;;;-1.80;99.90;;;;;;2063807;28;20034;-72
2022/03/03 01:12:21;;;;;;;64.13;34.38;;;-1.90;99.90;;;;;;2063708;28;20058;-73
2022/03/03 01:13:22;;;;;;;64.03;33.42;;;-1.90;99.90;;;;;;2064272;28;20030;-72
2022/03/03 01:14:24;;;;;;;62.00;33.13;;;-1.90;99.90;;;;;;2064023;28;20049;-72
2022/03/03 01:15:25;;;;;;;66.53;33.60;;;-1.90;99.90;;;;;;2064262;28;20069;-73
2022/03/03 01:16:26;;;;;;;65.20;33.40;;;-1.90;99.90;;;;;;2063384;28;20030;-70
2022/03/03 01:17:26;;;;;;;63.42;34.08;;;-1.90;99.90;;;;;;2063636;28;20108;-70
2022/03/03 01:18:27;;;;;;;62.28;33.72;;;-1.90;99.90;;;;;;2063922;28;20129;-70
2022/03/03 01:19:28;;;;;;;61.47;32.53;;;-1.90;99.90;;;;;;2063713;28;20166;-72
2022/03/03 01:20:29;;;;;;;59.80;32.55;;;-1.90;99.90;;;;;;2063688;28;20058;-70
2022/03/03 01:21:29;;;;;;;57.60;31.55;;;-1.90;99.90;;;;;;2064214;28;20057;-70
2022/03/03 01:22:30;;;;;;;57.58;31.67;;;-1.90;99.90;;;;;;2065238;28;20113;-70
2022/03/03 01:23:30;;;;;;;59.22;32.90;;;-1.90;99.90;;;;;;2065577;28;20176;-70
2022/03/03 01:24:31;;;;;;;58.00;31.77;;;-1.90;99.90;;;;;;2064922;28;20093;-71
2022/03/03 01:25:32;;;;;;;57.72;32.58;;;-1.90;99.90;;;;;;2056896;28;20034;-69
2022/03/03 01:26:33;;;;;;;64.65;34.15;;;-1.90;99.90;;;;;;2065194;28;20121;-72
2022/03/03 01:27:33;;;;;;;62.95;33.78;;;-1.90;99.90;;;;;;2065277;28;20586;-70
2022/03/03 01:28:34;;;;;;;60.55;33.88;;;-1.90;99.90;;;;;;2065688;28;20045;-70
2022/03/03 01:29:35;;;;;;;61.05;33.63;;;-1.90;99.90;;;;;;2065564;28;20066;-71
2022/03/03 01:30:36;;;;;;;60.83;32.90;;;-2.00;99.90;;;;;;2065663;28;20053;-70
2022/03/03 01:31:36;;;;;;;61.28;33.63;;;-2.00;99.90;;;;;;2065609;28;20518;-70
2022/03/03 01:32:37;;;;;;;60.83;32.90;;;-2.00;99.90;;;;;;2065743;28;20545;-70
2022/03/03 01:33:38;;;;;;;57.67;32.33;;;-2.00;99.90;;;;;;2065571;28;20061;-70
2022/03/03 01:34:39;;;;;;;61.58;33.47;;;-2.00;99.90;;;;;;2065204;28;20042;-71
2022/03/03 01:35:40;;;;;;;57.25;31.67;;;-2.00;99.90;;;;;;2073143;28;20025;-70
2022/03/03 01:36:41;;;;;;;57.92;32.08;;;-2.00;99.90;;;;;;2073163;28;20022;-71
2022/03/03 01:37:42;;;;;;;56.53;32.33;;;-2.00;99.90;;;;;;2065205;28;20118;-72
2022/03/03 01:38:42;;;;;;;53.45;30.38;;;-2.00;99.90;;;;;;2065507;28;20049;-72
2022/03/03 01:39:43;;;;;;;56.15;31.50;;;-2.00;99.90;;;;;;2065760;28;20482;-73
2022/03/03 01:40:43;;;;;;;58.17;32.42;;;-2.00;99.90;;;;;;2065923;28;20053;-72
2022/03/03 01:41:44;;;;;;;54.67;31.25;;;-2.00;99.90;;;;;;2065141;28;20038;-74
2022/03/03 01:42:45;;;;;;;53.17;31.10;;;-2.00;99.90;;;;;;2065098;28;20038;-73
2022/03/03 01:43:45;;;;;;;53.63;31.33;;;-2.00;99.90;;;;;;2065554;28;20419;-73
2022/03/03 01:44:46;;;;;;;55.90;31.35;;;-2.00;99.90;;;;;;2056883;28;20030;-72
2022/03/03 01:45:47;;;;;;;54.15;31.02;;;-2.00;99.90;;;;;;2057267;28;20069;-73
2022/03/03 01:46:57;;;;;;;57.42;31.17;;;-1.90;99.90;;;;;;2065332;28;20544;-73
2022/03/03 01:47:58;;;;;;;54.00;30.92;;;-2.00;99.90;;;;;;2064850;28;20026;-71
2022/03/03 01:48:59;;;;;;;53.70;31.23;;;-2.00;99.90;;;;;;2065110;28;20027;-71
2022/03/03 01:50:00;;;;;;;55.72;32.70;;;-2.00;99.90;;;;;;2065971;28;20233;-71
2022/03/03 01:51:01;;;;;;;55.63;31.23;;;-2.00;99.90;;;;;;2065774;28;20069;-72
2022/03/03 01:52:01;;;;;;;54.72;31.40;;;-2.00;99.90;;;;;;2065846;28;20022;-72
2022/03/03 01:53:03;;;;;;;55.47;31.58;;;-2.00;99.90;;;;;;2065884;28;20052;-73
2022/03/03 01:54:04;;;;;;;52.92;30.80;;;-2.00;99.90;;;;;;2065556;28;20074;-72
2022/03/03 01:55:06;;;;;;;59.30;31.95;;;-2.00;99.90;;;;;;2066036;28;20580;-72
2022/03/03 01:56:08;;;;;;;55.03;31.25;;;-2.00;99.90;;;;;;2065506;28;20665;-71
2022/03/03 01:57:10;;;;;;;58.35;31.33;;;-2.00;99.90;;;;;;2065538;28;20121;-73
2022/03/03 01:58:11;;;;;;;55.40;31.25;;;-2.00;99.90;;;;;;2065419;28;20022;-72
2022/03/03 01:59:11;;;;;;;53.88;30.77;;;-2.00;99.90;;;;;;2065874;28;20084;-71
2022/03/03 02:00:12;;;;;;;56.70;31.05;;;-2.00;99.90;;;;;;2065740;28;20094;-73
2022/03/03 02:01:15;;;;;;;55.47;31.00;;;-2.00;99.90;;;;;;2066011;28;20026;-72
2022/03/03 02:02:16;;;;;;;52.97;30.02;;;-2.00;99.90;;;;;;2064983;28;20038;-73
2022/03/03 02:03:16;;;;;;;57.17;31.38;;;-2.00;99.90;;;;;;2073157;28;20030;-72
2022/03/03 02:04:17;;;;;;;56.80;31.00;;;-2.10;99.90;;;;;;2073075;28;20085;-70
2022/03/03 02:05:18;;;;;;;58.88;32.38;;;-2.10;99.90;;;;;;2065562;28;20493;-71
2022/03/03 02:06:18;;;;;;;56.10;31.15;;;-2.00;99.90;;;;;;2064956;28;20026;-71
2022/03/03 02:07:19;;;;;;;54.50;30.48;;;-2.00;99.90;;;;;;2065128;28;20723;-73
2022/03/03 02:08:19;;;;;;;54.97;30.45;;;-2.00;99.90;;;;;;2065032;28;20057;-72
2022/03/03 02:09:20;;;;;;;55.40;30.88;;;-2.00;99.90;;;;;;2065791;28;20105;-72
2022/03/03 02:10:21;;;;;;;52.45;31.17;;;-2.00;99.90;;;;;;2073098;28;20370;-73
2022/03/03 02:11:21;;;;;;;53.75;30.85;;;-2.00;99.90;;;;;;2073179;28;20108;-73
2022/03/03 02:12:22;;;;;;;53.92;30.88;;;-2.00;99.90;;;;;;2064954;28;20480;-72
2022/03/03 02:13:23;;;;;;;57.67;31.48;;;-2.10;99.90;;;;;;2065686;28;20097;-71
2022/03/03 02:14:24;;;;;;;56.00;32.10;;;-2.00;99.90;;;;;;2066081;28;20022;-71
2022/03/03 02:15:24;;;;;;;52.92;30.55;;;-2.10;99.90;;;;;;2066235;28;20029;-73
2022/03/03 02:16:25;;;;;;;54.40;31.33;;;-2.10;99.90;;;;;;2065585;28;20042;-73
2022/03/03 02:17:26;;;;;;;54.58;30.90;;;-2.10;99.90;;;;;;2065797;28;20065;-70
2022/03/03 02:18:27;;;;;;;53.28;31.20;;;-2.10;99.90;;;;;;2065997;28;20477;-72
2022/03/03 02:19:27;;;;;;;52.85;30.60;;;-2.10;99.90;;;;;;2065742;28;20058;-73
2022/03/03 02:20:29;;;;;;;55.03;30.90;;;-2.10;99.90;;;;;;2065980;28;20121;-73
2022/03/03 02:21:30;;;;;;;56.70;31.63;;;-2.10;99.90;;;;;;2065000;28;20034;-72
2022/03/03 02:22:34;;;;;;;57.58;30.98;;;-2.10;99.90;;;;;;2064823;28;20797;-72
2022/03/03 02:23:35;;;;;;;51.08;29.60;;;-2.10;99.90;;;;;;2073656;28;20073;-72
2022/03/03 02:24:37;;;;;;;52.00;30.45;;;-2.10;99.90;;;;;;2073136;28;20394;-70
2022/03/03 02:25:37;;;;;;;54.35;30.92;;;-2.10;99.90;;;;;;2065452;28;20045;-71
2022/03/03 02:26:39;;;;;;;56.53;30.95;;;-2.10;99.90;;;;;;2066200;28;20470;-73
2022/03/03 02:27:40;;;;;;;55.72;31.17;;;-2.00;99.90;;;;;;2066178;28;20031;-70
2022/03/03 02:28:42;;;;;;;56.58;31.20;;;-2.00;99.90;;;;;;2065693;28;20417;-72
2022/03/03 02:29:43;;;;;;;52.50;30.00;;;-2.00;99.90;;;;;;2065946;28;20030;-71
2022/03/03 02:30:43;;;;;;;56.70;31.35;;;-2.00;99.90;;;;;;2065235;28;20117;-71
2022/03/03 02:31:44;;;;;;;53.00;30.20;;;-2.10;99.90;;;;;;2072644;28;20030;-71
2022/03/03 02:32:57;;;;;;;54.15;30.65;;;-2.00;99.90;;;;;;2073424;28;20405;-71
2022/03/03 02:33:58;;;;;;;55.53;30.70;;;-2.00;99.90;;;;;;2064967;28;20390;-70
2022/03/03 02:34:59;;;;;;;54.50;31.17;;;-2.00;99.90;;;;;;2066164;28;20117;-73
2022/03/03 02:36:19;;;;;;;55.25;31.60;;;-2.00;99.90;;;;;;2073237;28;20025;-71
2022/03/03 02:37:19;;;;;;;56.85;31.52;;;-2.00;99.90;;;;;;2070760;28;20529;-71
2022/03/03 02:38:20;;;;;;;58.97;30.92;;;-2.00;99.90;;;;;;2064678;28;20041;-73
2022/03/03 02:39:21;;;;;;;58.30;31.38;;;-2.00;99.90;;;;;;2065183;28;20552;-72
2022/03/03 02:40:21;;;;;;;61.47;32.90;;;-2.00;99.90;;;;;;2065865;28;20053;-72
2022/03/03 02:41:23;;;;;;;62.17;33.25;;;-2.00;99.90;;;;;;2064775;28;20505;-71
2022/03/03 02:42:24;;;;;;;59.90;32.63;;;-2.00;99.90;;;;;;2064816;28;20034;-72
2022/03/03 02:43:24;;;;;;;61.42;33.42;;;-2.00;99.90;;;;;;2065221;28;20026;-71
2022/03/03 02:44:25;;;;;;;57.95;32.15;;;-2.00;99.90;;;;;;2065224;28;20125;-72
2022/03/03 02:45:25;;;;;;;60.05;32.97;;;-1.90;99.90;;;;;;2064401;28;20031;-72
2022/03/03 02:46:26;;;;;;;59.90;32.95;;;-2.00;99.90;;;;;;2064769;28;20101;-71
2022/03/03 02:47:26;;;;;;;57.17;31.70;;;-2.00;99.90;;;;;;2065392;28;20426;-72
2022/03/03 02:48:27;;;;;;;56.25;31.52;;;-2.00;99.90;;;;;;2064413;28;20536;-71
2022/03/03 02:49:29;;;;;;;62.92;34.08;;;-2.00;99.90;;;;;;2065014;28;20040;-72
2022/03/03 02:50:30;;;;;;;59.35;33.15;;;-2.00;99.90;;;;;;2065568;28;20033;-71
2022/03/03 02:51:30;;;;;;;60.78;33.92;;;-2.00;99.90;;;;;;2064809;28;20065;-73
2022/03/03 02:52:31;;;;;;;61.03;33.80;;;-2.00;99.90;;;;;;2056710;28;20502;-71
2022/03/03 02:53:32;;;;;;;59.75;33.78;;;-1.90;99.90;;;;;;2064750;28;20517;-72
2022/03/03 02:54:32;;;;;;;60.75;34.03;;;-1.90;99.90;;;;;;2072503;28;20460;-72
2022/03/03 02:55:33;;;;;;;63.53;34.00;;;-2.00;99.90;;;;;;2072705;28;20080;-70
2022/03/03 02:57:53;;;;;;;68.15;35.58;;;-2.00;99.90;;;;;;2065318;28;20541;-71
2022/03/03 02:57:54;;;;;;;68.75;33.63;;;-2.00;99.90;;;;;;2064201;28;20552;-71
2022/03/03 02:58:55;;;;;;;66.72;34.58;;;-2.00;99.90;;;;;;2056770;28;20046;-71
2022/03/03 02:59:55;;;;;;;64.72;34.38;;;-2.00;99.90;;;;;;2065272;28;20033;-71
2022/03/03 03:00:56;;;;;;;67.18;33.95;;;-2.00;99.90;;;;;;2065787;28;20089;-73
2022/03/03 03:01:57;;;;;;;67.22;33.92;;;-2.10;99.90;;;;;;2064726;28;20034;-72
2022/03/03 03:02:57;;;;;;;65.28;34.25;;;-2.10;99.90;;;;;;2064929;28;20061;-71
2022/03/03 03:03:58;;;;;;;63.88;33.05;;;-2.10;99.90;;;;;;2064758;28;20034;-71
2022/03/03 03:04:58;;;;;;;64.40;33.20;;;-2.10;99.90;;;;;;2057072;28;20049;-71
2022/03/03 03:05:59;;;;;;;63.63;33.08;;;-2.10;99.90;;;;;;2057737;28;20019;-71
2022/03/03 03:06:59;;;;;;;59.38;32.05;;;-2.10;99.90;;;;;;2065595;28;20477;-71
2022/03/03 03:08:00;;;;;;;61.38;32.78;;;-2.10;99.90;;;;;;2065425;28;20442;-71
2022/03/03 03:09:01;;;;;;;56.78;31.67;;;-2.10;99.90;;;;;;2073446;28;20583;-72
2022/03/03 03:10:02;;;;;;;64.70;33.08;;;-2.10;99.90;;;;;;2073275;28;20056;-71
2022/03/03 03:11:03;;;;;;;62.42;33.30;;;-2.10;99.90;;;;;;2064937;28;20026;-70
2022/03/03 03:12:04;;;;;;;55.75;31.48;;;-2.20;99.90;;;;;;2064780;28;20025;-71
2022/03/03 03:13:06;;;;;;;56.78;32.20;;;-2.10;99.90;;;;;;2065363;28;20169;-72
2022/03/03 03:14:06;;;;;;;57.03;31.40;;;-2.20;99.90;;;;;;2063979;28;20425;-72
2022/03/03 03:15:07;;;;;;;58.25;31.00;;;-2.20;99.90;;;;;;2056386;28;20031;-72
2022/03/03 03:16:08;;;;;;;56.10;31.00;;;-2.20;99.90;;;;;;2064356;28;20049;-72
2022/03/03 03:17:09;;;;;;;53.25;30.98;;;-2.20;99.90;;;;;;2064320;28;20539;-71
2022/03/03 03:18:21;;;;;;;52.97;30.90;;;-2.20;99.90;;;;;;2063990;28;20035;-71
2022/03/03 03:19:22;;;;;;;53.22;30.25;;;-2.20;99.90;;;;;;2065065;28;20018;-72
2022/03/03 03:20:23;;;;;;;51.47;29.23;;;-2.20;99.90;;;;;;2064543;28;20034;-73
2022/03/03 03:21:24;;;;;;;54.17;30.65;;;-2.20;99.90;;;;;;2064451;28;20030;-72
2022/03/03 03:22:24;;;;;;;52.83;29.75;;;-2.20;99.90;;;;;;2072749;28;20052;-72
2022/03/03 03:23:25;;;;;;;52.00;29.65;;;-2.20;99.90;;;;;;2065283;28;20045;-71
2022/03/03 03:24:25;;;;;;;53.38;29.67;;;-2.20;99.90;;;;;;2064879;28;20401;-70
2022/03/03 03:25:26;;;;;;;51.60;29.73;;;-2.20;99.90;;;;;;2064922;28;20030;-71
2022/03/03 03:26:26;;;;;;;52.33;29.45;;;-2.20;99.90;;;;;;2064276;28;20149;-71
2022/03/03 03:27:28;;;;;;;53.80;29.52;;;-2.30;99.90;;;;;;2056849;28;20034;-71
2022/03/03 03:28:29;;;;;;;50.38;29.08;;;-2.30;99.90;;;;;;2064447;28;20045;-71
2022/03/03 03:29:30;;;;;;;52.53;30.13;;;-2.30;99.90;;;;;;2064829;28;20054;-70
2022/03/03 03:30:31;;;;;;;54.47;30.98;;;-2.30;99.90;;;;;;2065028;28;20034;-72
2022/03/03 03:31:32;;;;;;;56.35;30.30;;;-2.30;99.90;;;;;;2065468;28;20041;-73
2022/03/03 03:32:33;;;;;;;54.67;29.73;;;-2.30;99.90;;;;;;2065160;28;20026;-71
2022/03/03 03:33:33;;;;;;;53.13;31.02;;;-2.30;99.90;;;;;;2065103;28;20030;-72
2022/03/03 03:34:34;;;;;;;54.70;30.77;;;-2.30;99.90;;;;;;2065317;28;20792;-72
2022/03/03 03:35:35;;;;;;;53.58;30.02;;;-2.30;99.90;;;;;;2065136;28;20030;-71
2022/03/03 03:36:36;;;;;;;53.40;30.08;;;-2.40;99.90;;;;;;2064933;28;20054;-71
2022/03/03 03:37:37;;;;;;;56.75;31.50;;;-2.40;99.90;;;;;;2064595;28;20038;-72
2022/03/03 03:38:37;;;;;;;51.95;30.23;;;-2.40;99.90;;;;;;2065150;28;20030;-72
2022/03/03 03:39:38;;;;;;;54.08;29.67;;;-2.40;99.90;;;;;;2064943;28;20398;-71
2022/03/03 03:40:39;;;;;;;59.83;31.42;;;-2.40;99.90;;;;;;2064902;28;20038;-71
2022/03/03 03:41:40;;;;;;;56.90;31.67;;;-2.40;99.90;;;;;;2065150;28;20102;-71
2022/03/03 03:42:41;;;;;;;60.33;32.00;;;-2.40;99.90;;;;;;2066153;28;20146;-71
2022/03/03 03:43:41;;;;;;;57.95;31.17;;;-2.40;99.90;;;;;;2065146;28;20038;-70
2022/03/03 03:44:42;;;;;;;59.35;31.30;;;-2.40;99.90;;;;;;2056425;28;20094;-71
2022/03/03 03:45:43;;;;;;;58.03;31.33;;;-2.40;99.90;;;;;;2065459;28;20034;-71
2022/03/03 03:46:43;;;;;;;58.00;30.98;;;-2.40;99.90;;;;;;2065885;28;20038;-71
2022/03/03 03:47:44;;;;;;;58.78;32.45;;;-2.40;99.90;;;;;;2065805;28;20037;-73
2022/03/03 03:48:45;;;;;;;60.58;33.03;;;-2.40;99.90;;;;;;2075643;28;20108;-72
2022/03/03 03:49:45;;;;;;;56.33;30.85;;;-2.50;99.90;;;;;;2074967;28;20042;-72
2022/03/03 03:50:46;;;;;;;55.05;31.00;;;-2.50;99.90;;;;;;2067337;28;20041;-71
2022/03/03 03:51:47;;;;;;;58.72;31.75;;;-2.50;99.90;;;;;;2067035;28;20466;-71
2022/03/03 03:52:47;;;;;;;53.55;30.38;;;-2.50;99.90;;;;;;2067616;28;20121;-70
2022/03/03 03:53:48;;;;;;;55.72;30.77;;;-2.50;99.90;;;;;;2066440;28;20109;-70
2022/03/03 03:54:48;;;;;;;57.95;31.65;;;-2.50;99.90;;;;;;2067032;28;20049;-72
2022/03/03 03:55:50;;;;;;;56.15;30.48;;;-2.50;99.90;;;;;;2069106;28;20027;-73
2022/03/03 03:56:51;;;;;;;55.78;31.63;;;-2.50;99.90;;;;;;2068542;28;20041;-73
2022/03/03 03:57:51;;;;;;;50.97;29.90;;;-2.60;99.90;;;;;;2067542;28;20098;-73
2022/03/03 03:58:52;;;;;;;53.65;29.80;;;-2.60;99.90;;;;;;2068815;28;20030;-72
2022/03/03 03:59:53;;;;;;;53.42;31.02;;;-2.60;99.90;;;;;;2076353;28;20033;-73
2022/03/03 04:00:53;;;;;;;53.08;30.50;;;-2.60;99.90;;;;;;2077800;28;20517;-72
2022/03/03 04:01:54;;;;;;;53.17;30.63;;;-2.60;99.90;;;;;;2069051;28;20194;-72
2022/03/03 04:02:55;;;;;;;56.88;30.98;;;-2.60;99.90;;;;;;2068406;28;20059;-72
2022/03/03 04:03:55;;;;;;;54.33;30.02;;;-2.60;99.90;;;;;;2066098;28;20037;-71
2022/03/03 04:04:56;;;;;;;51.80;29.67;;;-2.60;99.90;;;;;;2065175;28;20023;-72
2022/03/03 04:05:57;;;;;;;54.65;30.50;;;-2.60;99.90;;;;;;2064430;28;20085;-72
2022/03/03 04:06:58;;;;;;;51.53;30.40;;;-2.70;99.90;;;;;;2064567;28;20030;-71
2022/03/03 04:07:58;;;;;;;52.22;29.92;;;-2.70;99.90;;;;;;2064467;28;20593;-73
2022/03/03 04:08:59;;;;;;;53.03;29.70;;;-2.70;99.90;;;;;;2063921;28;20038;-72
2022/03/03 04:10:00;;;;;;;53.65;30.95;;;-2.70;99.90;;;;;;2064099;28;20042;-73
2022/03/03 04:11:02;;;;;;;52.08;29.77;;;-2.70;99.90;;;;;;2064685;28;20385;-71
2022/03/03 04:12:03;;;;;;;51.97;28.83;;;-2.70;99.90;;;;;;2064800;28;20054;-72
2022/03/03 04:13:03;;;;;;;51.42;28.73;;;-2.70;99.90;;;;;;2064903;28;20390;-73
2022/03/03 04:14:04;;;;;;;51.67;28.95;;;-2.70;99.90;;;;;;2064537;28;20033;-72
2022/03/03 04:15:05;;;;;;;49.88;29.13;;;-2.70;99.90;;;;;;2064517;28;20058;-72
2022/03/03 04:16:06;;;;;;;48.92;28.83;;;-2.70;99.90;;;;;;2064655;28;20109;-71
2022/03/03 04:17:07;;;;;;;52.13;29.60;;;-2.80;99.90;;;;;;2072888;28;20025;-72
2022/03/03 04:18:08;;;;;;;54.17;30.38;;;-2.80;99.90;;;;;;2072079;28;20478;-70
2022/03/03 04:19:09;;;;;;;54.25;30.45;;;-2.80;99.90;;;;;;2064750;28;20027;-71
2022/03/03 04:20:10;;;;;;;54.58;30.38;;;-2.70;99.90;;;;;;2065039;28;20022;-71
2022/03/03 04:21:11;;;;;;;51.80;29.83;;;-2.70;99.90;;;;;;2065502;28;20084;-71
2022/03/03 04:22:11;;;;;;;52.50;30.02;;;-2.80;99.90;;;;;;2065009;28;20042;-71
2022/03/03 04:23:12;;;;;;;53.70;29.83;;;-2.80;99.90;;;;;;2064860;28;20033;-70
2022/03/03 04:24:13;;;;;;;53.85;30.38;;;-2.80;99.90;;;;;;2064569;28;20033;-70
2022/03/03 04:25:13;;;;;;;51.58;28.90;;;-2.80;99.90;;;;;;2064069;28;20474;-71
2022/03/03 04:26:15;;;;;;;50.65;29.40;;;-2.80;99.90;;;;;;2064091;28;20109;-71
2022/03/03 04:27:15;;;;;;;53.67;30.00;;;-2.90;99.90;;;;;;2064237;28;20125;-70
2022/03/03 04:28:16;;;;;;;50.42;28.80;;;-2.90;99.90;;;;;;2063999;28;20041;-70
2022/03/03 04:29:16;;;;;;;51.50;28.88;;;-2.80;99.90;;;;;;2064700;28;20446;-71
2022/03/03 04:30:17;;;;;;;47.20;27.63;;;-2.90;99.90;;;;;;2064008;28;20113;-71
2022/03/03 04:31:18;;;;;;;50.78;28.10;;;-2.90;99.90;;;;;;2064252;28;20042;-71
2022/03/03 04:32:18;;;;;;;52.33;29.23;;;-2.90;99.90;;;;;;2064399;28;20066;-73
2022/03/03 04:33:19;;;;;;;53.42;29.88;;;-2.90;99.90;;;;;;2064618;28;20037;-71
2022/03/03 04:34:20;;;;;;;50.55;29.73;;;-2.90;99.90;;;;;;2064432;28;20200;-72
2022/03/03 04:35:22;;;;;;;53.58;29.73;;;-2.90;99.90;;;;;;2064821;28;20046;-72
2022/03/03 04:36:23;;;;;;;50.95;29.27;;;-2.90;99.90;;;;;;2064097;28;20106;-70
2022/03/03 04:37:23;;;;;;;54.78;30.10;;;-2.90;99.90;;;;;;2064248;28;20108;-71
2022/03/03 04:38:25;;;;;;;53.28;29.98;;;-2.90;99.90;;;;;;2064374;28;20109;-71
2022/03/03 04:39:25;;;;;;;55.25;30.20;;;-2.90;99.90;;;;;;2063949;28;20026;-71
2022/03/03 04:40:26;;;;;;;53.25;30.88;;;-2.90;99.90;;;;;;2064173;28;20057;-71
2022/03/03 04:41:27;;;;;;;54.25;30.08;;;-3.00;99.90;;;;;;2064731;28;20464;-71
2022/03/03 04:42:27;;;;;;;51.33;29.40;;;-2.90;99.90;;;;;;2064630;28;20121;-71
2022/03/03 04:43:28;;;;;;;52.95;29.58;;;-3.00;99.90;;;;;;2064524;28;20057;-70
2022/03/03 04:44:29;;;;;;;52.38;29.33;;;-3.00;99.90;;;;;;2064138;28;20052;-70
2022/03/03 04:45:29;;;;;;;50.83;28.67;;;-3.00;99.90;;;;;;2064357;28;20054;-71
2022/03/03 04:46:30;;;;;;;51.63;29.02;;;-3.00;99.90;;;;;;2064605;28;20097;-71
2022/03/03 04:47:31;;;;;;;49.72;28.25;;;-3.00;99.90;;;;;;2065175;28;20046;-72
2022/03/03 04:48:31;;;;;;;54.03;30.25;;;-3.00;99.90;;;;;;2066477;28;20030;-71
2022/03/03 04:49:32;;;;;;;53.38;29.70;;;-3.00;99.90;;;;;;2065215;28;20038;-72
2022/03/03 04:50:33;;;;;;;55.08;29.92;;;-2.90;99.90;;;;;;2064839;28;20046;-72
2022/03/03 04:51:37;;;;;;;53.92;29.13;;;-3.00;99.90;;;;;;2064392;28;20141;-72
2022/03/03 04:52:37;;;;;;;54.53;29.50;;;-3.00;99.90;;;;;;2064025;28;20026;-71
2022/03/03 04:53:38;;;;;;;54.03;29.60;;;-3.00;99.90;;;;;;2063944;28;20405;-72
2022/03/03 04:54:39;;;;;;;53.53;29.77;;;-3.00;99.90;;;;;;2064358;28;20490;-70
2022/03/03 04:55:40;;;;;;;53.88;30.50;;;-3.00;99.90;;;;;;2064002;28;20811;-70
2022/03/03 04:56:40;;;;;;;55.08;30.20;;;-3.00;99.90;;;;;;2064214;28;20454;-70
2022/03/03 04:57:41;;;;;;;58.17;30.05;;;-3.00;99.90;;;;;;2065637;28;20091;-70
2022/03/03 04:58:42;;;;;;;51.45;28.60;;;-3.00;99.90;;;;;;2066081;28;20794;-70
2022/03/03 04:59:43;;;;;;;49.45;28.70;;;-3.00;99.90;;;;;;2057943;28;20064;-72
2022/03/03 05:00:44;;;;;;;50.22;28.40;;;-3.00;99.90;;;;;;2066069;28;20565;-72
2022/03/03 05:01:44;;;;;;;50.45;29.08;;;-3.00;99.90;;;;;;2067208;28;20050;-73
2022/03/03 05:02:45;;;;;;;50.70;28.77;;;-3.00;99.90;;;;;;2065606;28;20113;-74
2022/03/03 05:03:46;;;;;;;52.53;29.33;;;-3.00;99.90;;;;;;2065552;28;20430;-72
2022/03/03 05:04:47;;;;;;;53.08;29.48;;;-3.00;99.90;;;;;;2065946;28;20034;-71
2022/03/03 05:05:47;;;;;;;53.22;30.70;;;-3.00;99.90;;;;;;2065937;28;20037;-69
2022/03/03 05:06:49;;;;;;;53.47;29.15;;;-3.00;99.90;;;;;;2066314;28;20066;-72
2022/03/03 05:07:50;;;;;;;51.13;29.55;;;-3.00;99.90;;;;;;2065799;28;20045;-71
2022/03/03 05:08:51;;;;;;;51.90;29.27;;;-3.00;99.90;;;;;;2065606;28;20033;-72
2022/03/03 05:09:51;;;;;;;52.15;30.02;;;-3.00;99.90;;;;;;2049666;28;20042;-72